sensor_id;sensor_type;location;lat;lon;timestamp;P1;durP1;ratioP1;P2;durP2;ratioP2
9459;SDS011;4768;42.664;23.240;2023-05-14T00:00:43;3.73;;;1.80;;
9459;SDS011;4768;42.664;23.240;2023-05-14T00:03:11;2.30;;;1.90;;
9459;SDS011;4768;42.664;23.240;2023-05-14T00:05:42;2.47;;;2.00;;
9459;SDS011;4768;42.664;23.240;2023-05-14T00:08:09;1.90;;;1.77;;
9459;SDS011;4768;42.664;23.240;2023-05-14T00:10:35;2.87;;;1.93;;
9459;SDS011;4768;42.664;23.240;2023-05-14T00:13:02;1.70;;;1.60;;
9459;SDS011;4768;42.664;23.240;2023-05-14T00:15:29;1.80;;;1.70;;
9459;SDS011;4768;42.664;23.240;2023-05-14T00:17:56;2.00;;;1.90;;
9459;SDS011;4768;42.664;23.240;2023-05-14T00:20:22;4.83;;;2.20;;
9459;SDS011;4768;42.664;23.240;2023-05-14T00:22:50;3.30;;;1.87;;
9459;SDS011;4768;42.664;23.240;2023-05-14T00:25:17;2.57;;;2.07;;
9459;SDS011;4768;42.664;23.240;2023-05-14T00:27:44;2.00;;;1.80;;
9459;SDS011;4768;42.664;23.240;2023-05-14T00:30:11;2.87;;;2.00;;
9459;SDS011;4768;42.664;23.240;2023-05-14T00:32:38;2.30;;;1.90;;
9459;SDS011;4768;42.664;23.240;2023-05-14T00:35:05;2.97;;;2.07;;
9459;SDS011;4768;42.664;23.240;2023-05-14T00:37:32;2.10;;;1.90;;
9459;SDS011;4768;42.664;23.240;2023-05-14T00:40:01;1.90;;;1.73;;
9459;SDS011;4768;42.664;23.240;2023-05-14T00:42:30;2.67;;;2.10;;
9459;SDS011;4768;42.664;23.240;2023-05-14T00:44:57;2.97;;;2.30;;
9459;SDS011;4768;42.664;23.240;2023-05-14T00:47:24;2.07;;;1.87;;
9459;SDS011;4768;42.664;23.240;2023-05-14T00:49:51;2.57;;;2.00;;
9459;SDS011;4768;42.664;23.240;2023-05-14T00:52:18;1.97;;;1.80;;
9459;SDS011;4768;42.664;23.240;2023-05-14T00:54:46;4.13;;;2.17;;
9459;SDS011;4768;42.664;23.240;2023-05-14T00:57:15;3.10;;;2.03;;
9459;SDS011;4768;42.664;23.240;2023-05-14T00:59:43;2.43;;;2.00;;
9459;SDS011;4768;42.664;23.240;2023-05-14T01:02:10;5.33;;;2.47;;
9459;SDS011;4768;42.664;23.240;2023-05-14T01:04:36;2.70;;;2.03;;
9459;SDS011;4768;42.664;23.240;2023-05-14T01:07:08;3.53;;;2.07;;
9459;SDS011;4768;42.664;23.240;2023-05-14T01:09:41;2.87;;;2.33;;
9459;SDS011;4768;42.664;23.240;2023-05-14T01:12:14;2.37;;;2.17;;
9459;SDS011;4768;42.664;23.240;2023-05-14T01:14:51;3.60;;;2.27;;
9459;SDS011;4768;42.664;23.240;2023-05-14T01:17:25;3.00;;;2.17;;
9459;SDS011;4768;42.664;23.240;2023-05-14T01:19:54;2.30;;;2.10;;
9459;SDS011;4768;42.664;23.240;2023-05-14T01:22:23;1.73;;;1.63;;
9459;SDS011;4768;42.664;23.240;2023-05-14T01:24:50;2.47;;;1.90;;
9459;SDS011;4768;42.664;23.240;2023-05-14T01:27:18;2.17;;;1.97;;
9459;SDS011;4768;42.664;23.240;2023-05-14T01:29:52;4.43;;;2.37;;
9459;SDS011;4768;42.664;23.240;2023-05-14T01:32:24;2.57;;;1.87;;
9459;SDS011;4768;42.664;23.240;2023-05-14T01:34:53;2.13;;;1.90;;
9459;SDS011;4768;42.664;23.240;2023-05-14T01:37:25;2.70;;;2.00;;
9459;SDS011;4768;42.664;23.240;2023-05-14T01:39:55;2.23;;;2.03;;
9459;SDS011;4768;42.664;23.240;2023-05-14T01:42:22;2.37;;;2.17;;
9459;SDS011;4768;42.664;23.240;2023-05-14T01:44:50;2.93;;;2.23;;
9459;SDS011;4768;42.664;23.240;2023-05-14T01:47:16;5.27;;;2.67;;
9459;SDS011;4768;42.664;23.240;2023-05-14T01:49:43;2.13;;;1.93;;
9459;SDS011;4768;42.664;23.240;2023-05-14T01:52:10;2.33;;;1.97;;
9459;SDS011;4768;42.664;23.240;2023-05-14T01:54:38;2.60;;;2.13;;
9459;SDS011;4768;42.664;23.240;2023-05-14T01:57:05;2.37;;;1.73;;
9459;SDS011;4768;42.664;23.240;2023-05-14T01:59:32;2.70;;;2.10;;
9459;SDS011;4768;42.664;23.240;2023-05-14T02:01:58;3.07;;;2.20;;
9459;SDS011;4768;42.664;23.240;2023-05-14T02:04:25;2.67;;;2.13;;
9459;SDS011;4768;42.664;23.240;2023-05-14T02:06:52;2.53;;;2.10;;
9459;SDS011;4768;42.664;23.240;2023-05-14T02:09:19;2.67;;;2.20;;
9459;SDS011;4768;42.664;23.240;2023-05-14T02:11:47;2.63;;;1.93;;
9459;SDS011;4768;42.664;23.240;2023-05-14T02:14:13;2.30;;;2.10;;
9459;SDS011;4768;42.664;23.240;2023-05-14T02:16:40;2.67;;;1.90;;
9459;SDS011;4768;42.664;23.240;2023-05-14T02:19:07;2.00;;;1.90;;
9459;SDS011;4768;42.664;23.240;2023-05-14T02:21:34;3.30;;;2.20;;
9459;SDS011;4768;42.664;23.240;2023-05-14T02:24:01;2.43;;;2.17;;
9459;SDS011;4768;42.664;23.240;2023-05-14T02:26:30;2.43;;;2.00;;
9459;SDS011;4768;42.664;23.240;2023-05-14T02:28:58;2.50;;;1.97;;
9459;SDS011;4768;42.664;23.240;2023-05-14T02:31:25;2.67;;;1.90;;
9459;SDS011;4768;42.664;23.240;2023-05-14T02:33:52;2.13;;;1.83;;
9459;SDS011;4768;42.664;23.240;2023-05-14T02:36:19;3.10;;;2.03;;
9459;SDS011;4768;42.664;23.240;2023-05-14T02:38:45;2.37;;;1.97;;
9459;SDS011;4768;42.664;23.240;2023-05-14T02:41:12;3.03;;;2.13;;
9459;SDS011;4768;42.664;23.240;2023-05-14T02:43:39;3.40;;;2.43;;
9459;SDS011;4768;42.664;23.240;2023-05-14T02:46:07;2.20;;;2.00;;
9459;SDS011;4768;42.664;23.240;2023-05-14T02:48:34;2.33;;;1.87;;
9459;SDS011;4768;42.664;23.240;2023-05-14T02:51:01;2.30;;;1.73;;
9459;SDS011;4768;42.664;23.240;2023-05-14T02:53:28;1.83;;;1.63;;
9459;SDS011;4768;42.664;23.240;2023-05-14T02:55:55;3.90;;;2.03;;
9459;SDS011;4768;42.664;23.240;2023-05-14T02:58:21;2.57;;;2.10;;
9459;SDS011;4768;42.664;23.240;2023-05-14T03:00:48;2.40;;;2.10;;
9459;SDS011;4768;42.664;23.240;2023-05-14T03:03:17;2.67;;;1.90;;
9459;SDS011;4768;42.664;23.240;2023-05-14T03:05:44;2.97;;;2.23;;
9459;SDS011;4768;42.664;23.240;2023-05-14T03:08:11;3.07;;;2.47;;
9459;SDS011;4768;42.664;23.240;2023-05-14T03:10:38;2.30;;;2.07;;
9459;SDS011;4768;42.664;23.240;2023-05-14T03:13:04;3.03;;;2.03;;
9459;SDS011;4768;42.664;23.240;2023-05-14T03:15:31;2.20;;;2.00;;
9459;SDS011;4768;42.664;23.240;2023-05-14T03:17:58;3.03;;;2.60;;
9459;SDS011;4768;42.664;23.240;2023-05-14T03:20:26;4.20;;;2.30;;
9459;SDS011;4768;42.664;23.240;2023-05-14T03:22:53;2.70;;;2.43;;
9459;SDS011;4768;42.664;23.240;2023-05-14T03:25:26;3.10;;;2.57;;
9459;SDS011;4768;42.664;23.240;2023-05-14T03:28:41;3.40;;;2.43;;
9459;SDS011;4768;42.664;23.240;2023-05-14T03:34:34;2.43;;;2.07;;
9459;SDS011;4768;42.664;23.240;2023-05-14T03:37:02;3.50;;;2.10;;
9459;SDS011;4768;42.664;23.240;2023-05-14T03:39:30;2.73;;;2.30;;
9459;SDS011;4768;42.664;23.240;2023-05-14T03:41:57;2.37;;;2.17;;
9459;SDS011;4768;42.664;23.240;2023-05-14T03:44:23;2.50;;;2.17;;
9459;SDS011;4768;42.664;23.240;2023-05-14T03:46:50;2.47;;;2.03;;
9459;SDS011;4768;42.664;23.240;2023-05-14T03:49:17;2.50;;;2.30;;
9459;SDS011;4768;42.664;23.240;2023-05-14T03:51:44;2.30;;;2.10;;
9459;SDS011;4768;42.664;23.240;2023-05-14T03:54:12;2.30;;;1.97;;
9459;SDS011;4768;42.664;23.240;2023-05-14T03:56:39;2.67;;;2.10;;
9459;SDS011;4768;42.664;23.240;2023-05-14T03:59:06;2.27;;;1.80;;
9459;SDS011;4768;42.664;23.240;2023-05-14T04:01:33;3.53;;;2.17;;
9459;SDS011;4768;42.664;23.240;2023-05-14T04:03:59;2.20;;;2.00;;
9459;SDS011;4768;42.664;23.240;2023-05-14T04:06:26;4.13;;;2.43;;
9459;SDS011;4768;42.664;23.240;2023-05-14T04:08:53;3.70;;;2.50;;
9459;SDS011;4768;42.664;23.240;2023-05-14T04:11:21;2.83;;;2.30;;
9459;SDS011;4768;42.664;23.240;2023-05-14T04:13:48;2.73;;;2.00;;
9459;SDS011;4768;42.664;23.240;2023-05-14T04:16:14;2.30;;;2.10;;
9459;SDS011;4768;42.664;23.240;2023-05-14T04:18:41;2.43;;;2.03;;
9459;SDS011;4768;42.664;23.240;2023-05-14T04:21:08;1.83;;;1.73;;
9459;SDS011;4768;42.664;23.240;2023-05-14T04:23:35;2.03;;;1.80;;
9459;SDS011;4768;42.664;23.240;2023-05-14T04:26:01;2.13;;;1.93;;
9459;SDS011;4768;42.664;23.240;2023-05-14T04:28:32;1.73;;;1.47;;
9459;SDS011;4768;42.664;23.240;2023-05-14T04:30:58;2.97;;;2.40;;
9459;SDS011;4768;42.664;23.240;2023-05-14T04:33:25;4.17;;;2.07;;
9459;SDS011;4768;42.664;23.240;2023-05-14T04:35:52;3.80;;;1.93;;
9459;SDS011;4768;42.664;23.240;2023-05-14T04:38:19;2.27;;;1.80;;
9459;SDS011;4768;42.664;23.240;2023-05-14T04:40:45;3.63;;;1.93;;
9459;SDS011;4768;42.664;23.240;2023-05-14T04:43:12;2.43;;;2.00;;
9459;SDS011;4768;42.664;23.240;2023-05-14T04:45:41;2.80;;;2.03;;
9459;SDS011;4768;42.664;23.240;2023-05-14T04:48:08;5.13;;;2.50;;
9459;SDS011;4768;42.664;23.240;2023-05-14T04:50:35;3.17;;;2.27;;
9459;SDS011;4768;42.664;23.240;2023-05-14T04:53:02;2.80;;;2.30;;
9459;SDS011;4768;42.664;23.240;2023-05-14T04:55:29;2.40;;;2.20;;
9459;SDS011;4768;42.664;23.240;2023-05-14T04:57:55;4.37;;;2.17;;
9459;SDS011;4768;42.664;23.240;2023-05-14T05:00:22;2.90;;;2.03;;
9459;SDS011;4768;42.664;23.240;2023-05-14T05:02:51;2.13;;;2.03;;
9459;SDS011;4768;42.664;23.240;2023-05-14T05:05:17;1.90;;;1.70;;
9459;SDS011;4768;42.664;23.240;2023-05-14T05:07:44;3.90;;;2.00;;
9459;SDS011;4768;42.664;23.240;2023-05-14T05:10:11;2.20;;;1.67;;
9459;SDS011;4768;42.664;23.240;2023-05-14T05:12:38;2.60;;;1.90;;
9459;SDS011;4768;42.664;23.240;2023-05-14T05:15:05;3.17;;;2.20;;
9459;SDS011;4768;42.664;23.240;2023-05-14T05:17:33;2.90;;;2.30;;
9459;SDS011;4768;42.664;23.240;2023-05-14T05:20:06;13.37;;;4.80;;
9459;SDS011;4768;42.664;23.240;2023-05-14T05:22:34;2.43;;;2.10;;
9459;SDS011;4768;42.664;23.240;2023-05-14T05:25:01;40.07;;;18.53;;
9459;SDS011;4768;42.664;23.240;2023-05-14T05:27:30;56.27;;;24.10;;
9459;SDS011;4768;42.664;23.240;2023-05-14T05:29:56;9.23;;;5.20;;
9459;SDS011;4768;42.664;23.240;2023-05-14T05:32:23;14.30;;;7.90;;
9459;SDS011;4768;42.664;23.240;2023-05-14T05:34:50;21.80;;;11.33;;
9459;SDS011;4768;42.664;23.240;2023-05-14T05:37:18;8.77;;;5.30;;
9459;SDS011;4768;42.664;23.240;2023-05-14T05:39:45;3.27;;;2.43;;
9459;SDS011;4768;42.664;23.240;2023-05-14T05:42:12;2.00;;;0.90;;
9459;SDS011;4768;42.664;23.240;2023-05-14T05:44:39;0.83;;;0.83;;
9459;SDS011;4768;42.664;23.240;2023-05-14T05:47:06;0.07;;;0.07;;
9459;SDS011;4768;42.664;23.240;2023-05-14T05:49:33;0.13;;;0.13;;
9459;SDS011;4768;42.664;23.240;2023-05-14T05:52:01;0.10;;;0.10;;
9459;SDS011;4768;42.664;23.240;2023-05-14T05:54:29;0.10;;;0.10;;
9459;SDS011;4768;42.664;23.240;2023-05-14T05:56:57;1.60;;;0.20;;
9459;SDS011;4768;42.664;23.240;2023-05-14T05:59:24;0.10;;;0.10;;
9459;SDS011;4768;42.664;23.240;2023-05-14T06:01:50;0.10;;;0.10;;
9459;SDS011;4768;42.664;23.240;2023-05-14T06:04:17;0.30;;;0.30;;
9459;SDS011;4768;42.664;23.240;2023-05-14T06:06:44;0.13;;;0.03;;
9459;SDS011;4768;42.664;23.240;2023-05-14T06:09:11;0.53;;;0.53;;
9459;SDS011;4768;42.664;23.240;2023-05-14T06:11:39;0.00;;;0.00;;
9459;SDS011;4768;42.664;23.240;2023-05-14T06:14:06;0.50;;;0.50;;
9459;SDS011;4768;42.664;23.240;2023-05-14T06:16:33;0.20;;;0.20;;
9459;SDS011;4768;42.664;23.240;2023-05-14T06:18:59;4.83;;;0.47;;
9459;SDS011;4768;42.664;23.240;2023-05-14T06:21:26;0.13;;;0.13;;
9459;SDS011;4768;42.664;23.240;2023-05-14T06:23:53;0.00;;;0.00;;
9459;SDS011;4768;42.664;23.240;2023-05-14T06:26:19;0.30;;;0.30;;
9459;SDS011;4768;42.664;23.240;2023-05-14T06:28:48;0.20;;;0.20;;
9459;SDS011;4768;42.664;23.240;2023-05-14T06:31:14;1.23;;;0.87;;
9459;SDS011;4768;42.664;23.240;2023-05-14T06:33:41;0.20;;;0.20;;
9459;SDS011;4768;42.664;23.240;2023-05-14T06:36:08;0.37;;;0.37;;
9459;SDS011;4768;42.664;23.240;2023-05-14T06:38:35;0.30;;;0.30;;
9459;SDS011;4768;42.664;23.240;2023-05-14T06:41:02;0.23;;;0.23;;
9459;SDS011;4768;42.664;23.240;2023-05-14T06:43:28;4.23;;;0.53;;
9459;SDS011;4768;42.664;23.240;2023-05-14T06:45:56;0.07;;;0.07;;
9459;SDS011;4768;42.664;23.240;2023-05-14T06:48:23;0.17;;;0.13;;
9459;SDS011;4768;42.664;23.240;2023-05-14T06:50:51;0.60;;;0.40;;
9459;SDS011;4768;42.664;23.240;2023-05-14T06:53:18;0.20;;;0.20;;
9459;SDS011;4768;42.664;23.240;2023-05-14T06:55:45;0.00;;;0.00;;
9459;SDS011;4768;42.664;23.240;2023-05-14T06:58:13;0.30;;;0.30;;
9459;SDS011;4768;42.664;23.240;2023-05-14T07:00:39;0.60;;;0.37;;
9459;SDS011;4768;42.664;23.240;2023-05-14T07:03:07;0.20;;;0.20;;
9459;SDS011;4768;42.664;23.240;2023-05-14T07:05:34;0.10;;;0.10;;
9459;SDS011;4768;42.664;23.240;2023-05-14T07:08:01;0.10;;;0.10;;
9459;SDS011;4768;42.664;23.240;2023-05-14T07:10:27;0.10;;;0.10;;
9459;SDS011;4768;42.664;23.240;2023-05-14T07:12:55;0.37;;;0.37;;
9459;SDS011;4768;42.664;23.240;2023-05-14T07:15:21;0.10;;;0.10;;
9459;SDS011;4768;42.664;23.240;2023-05-14T07:17:48;0.00;;;0.00;;
9459;SDS011;4768;42.664;23.240;2023-05-14T07:20:16;0.13;;;0.13;;
9459;SDS011;4768;42.664;23.240;2023-05-14T07:22:43;0.17;;;0.17;;
9459;SDS011;4768;42.664;23.240;2023-05-14T07:25:09;0.10;;;0.10;;
9459;SDS011;4768;42.664;23.240;2023-05-14T07:27:36;0.30;;;0.20;;
9459;SDS011;4768;42.664;23.240;2023-05-14T07:30:03;0.10;;;0.10;;
9459;SDS011;4768;42.664;23.240;2023-05-14T07:32:31;0.13;;;0.07;;
9459;SDS011;4768;42.664;23.240;2023-05-14T07:34:57;0.17;;;0.17;;
9459;SDS011;4768;42.664;23.240;2023-05-14T07:37:25;0.40;;;0.40;;
9459;SDS011;4768;42.664;23.240;2023-05-14T07:39:52;8.80;;;0.50;;
9459;SDS011;4768;42.664;23.240;2023-05-14T07:42:20;0.10;;;0.10;;
9459;SDS011;4768;42.664;23.240;2023-05-14T07:44:46;1.03;;;0.40;;
9459;SDS011;4768;42.664;23.240;2023-05-14T07:47:15;0.10;;;0.10;;
9459;SDS011;4768;42.664;23.240;2023-05-14T07:49:41;0.10;;;0.10;;
9459;SDS011;4768;42.664;23.240;2023-05-14T07:52:08;2.17;;;0.23;;
9459;SDS011;4768;42.664;23.240;2023-05-14T07:54:36;0.20;;;0.20;;
9459;SDS011;4768;42.664;23.240;2023-05-14T07:57:03;0.00;;;0.00;;
9459;SDS011;4768;42.664;23.240;2023-05-14T07:59:30;0.10;;;0.10;;
9459;SDS011;4768;42.664;23.240;2023-05-14T08:01:57;0.57;;;0.30;;
9459;SDS011;4768;42.664;23.240;2023-05-14T08:04:23;0.30;;;0.20;;
9459;SDS011;4768;42.664;23.240;2023-05-14T08:06:50;0.10;;;0.10;;
9459;SDS011;4768;42.664;23.240;2023-05-14T08:09:17;0.40;;;0.40;;
9459;SDS011;4768;42.664;23.240;2023-05-14T08:11:45;0.13;;;0.13;;
9459;SDS011;4768;42.664;23.240;2023-05-14T08:14:12;1.37;;;0.53;;
9459;SDS011;4768;42.664;23.240;2023-05-14T08:16:39;0.10;;;0.10;;
9459;SDS011;4768;42.664;23.240;2023-05-14T08:19:05;0.20;;;0.20;;
9459;SDS011;4768;42.664;23.240;2023-05-14T08:21:32;0.00;;;0.00;;
9459;SDS011;4768;42.664;23.240;2023-05-14T08:23:59;0.30;;;0.30;;
9459;SDS011;4768;42.664;23.240;2023-05-14T08:26:25;3.23;;;0.47;;
9459;SDS011;4768;42.664;23.240;2023-05-14T08:28:54;0.00;;;0.00;;
9459;SDS011;4768;42.664;23.240;2023-05-14T08:31:20;0.57;;;0.47;;
9459;SDS011;4768;42.664;23.240;2023-05-14T08:33:47;0.40;;;0.33;;
9459;SDS011;4768;42.664;23.240;2023-05-14T08:36:14;0.03;;;0.03;;
9459;SDS011;4768;42.664;23.240;2023-05-14T08:38:41;1.10;;;0.47;;
9459;SDS011;4768;42.664;23.240;2023-05-14T08:41:08;0.20;;;0.20;;
9459;SDS011;4768;42.664;23.240;2023-05-14T08:43:40;1.50;;;0.53;;
9459;SDS011;4768;42.664;23.240;2023-05-14T08:46:12;0.00;;;0.00;;
9459;SDS011;4768;42.664;23.240;2023-05-14T08:48:41;0.13;;;0.13;;
9459;SDS011;4768;42.664;23.240;2023-05-14T08:51:08;0.30;;;0.30;;
9459;SDS011;4768;42.664;23.240;2023-05-14T08:53:35;0.83;;;0.40;;
9459;SDS011;4768;42.664;23.240;2023-05-14T08:56:04;0.10;;;0.10;;
9459;SDS011;4768;42.664;23.240;2023-05-14T08:58:33;0.17;;;0.17;;
9459;SDS011;4768;42.664;23.240;2023-05-14T09:01:00;0.20;;;0.20;;
9459;SDS011;4768;42.664;23.240;2023-05-14T09:03:29;0.23;;;0.23;;
9459;SDS011;4768;42.664;23.240;2023-05-14T09:05:56;0.23;;;0.17;;
9459;SDS011;4768;42.664;23.240;2023-05-14T09:08:23;0.00;;;0.00;;
9459;SDS011;4768;42.664;23.240;2023-05-14T09:10:50;0.10;;;0.10;;
9459;SDS011;4768;42.664;23.240;2023-05-14T09:13:17;0.50;;;0.20;;
9459;SDS011;4768;42.664;23.240;2023-05-14T09:15:43;0.07;;;0.07;;
9459;SDS011;4768;42.664;23.240;2023-05-14T09:18:11;0.20;;;0.20;;
9459;SDS011;4768;42.664;23.240;2023-05-14T09:20:39;0.73;;;0.40;;
9459;SDS011;4768;42.664;23.240;2023-05-14T09:23:06;0.10;;;0.10;;
9459;SDS011;4768;42.664;23.240;2023-05-14T09:25:33;0.30;;;0.30;;
9459;SDS011;4768;42.664;23.240;2023-05-14T09:27:59;0.57;;;0.47;;
9459;SDS011;4768;42.664;23.240;2023-05-14T09:30:31;0.00;;;0.00;;
9459;SDS011;4768;42.664;23.240;2023-05-14T09:32:59;0.00;;;0.00;;
9459;SDS011;4768;42.664;23.240;2023-05-14T09:35:25;0.37;;;0.37;;
9459;SDS011;4768;42.664;23.240;2023-05-14T09:37:54;0.00;;;0.00;;
9459;SDS011;4768;42.664;23.240;2023-05-14T09:40:21;0.13;;;0.13;;
9459;SDS011;4768;42.664;23.240;2023-05-14T09:42:48;0.20;;;0.20;;
9459;SDS011;4768;42.664;23.240;2023-05-14T09:45:15;0.43;;;0.43;;
9459;SDS011;4768;42.664;23.240;2023-05-14T09:47:42;0.20;;;0.20;;
9459;SDS011;4768;42.664;23.240;2023-05-14T09:50:09;0.53;;;0.53;;
9459;SDS011;4768;42.664;23.240;2023-05-14T09:52:37;1.50;;;0.33;;
9459;SDS011;4768;42.664;23.240;2023-05-14T09:55:05;0.37;;;0.33;;
9459;SDS011;4768;42.664;23.240;2023-05-14T09:57:33;0.10;;;0.10;;
9459;SDS011;4768;42.664;23.240;2023-05-14T09:59:59;0.30;;;0.30;;
9459;SDS011;4768;42.664;23.240;2023-05-14T10:02:29;0.63;;;0.40;;
9459;SDS011;4768;42.664;23.240;2023-05-14T10:05:03;0.30;;;0.30;;
9459;SDS011;4768;42.664;23.240;2023-05-14T10:07:34;0.57;;;0.57;;
9459;SDS011;4768;42.664;23.240;2023-05-14T10:10:07;0.13;;;0.13;;
9459;SDS011;4768;42.664;23.240;2023-05-14T10:12:38;0.83;;;0.40;;
9459;SDS011;4768;42.664;23.240;2023-05-14T10:15:08;0.27;;;0.27;;
9459;SDS011;4768;42.664;23.240;2023-05-14T10:17:42;0.20;;;0.20;;
9459;SDS011;4768;42.664;23.240;2023-05-14T10:20:14;0.47;;;0.47;;
9459;SDS011;4768;42.664;23.240;2023-05-14T10:22:42;0.30;;;0.30;;
9459;SDS011;4768;42.664;23.240;2023-05-14T10:25:10;0.73;;;0.50;;
9459;SDS011;4768;42.664;23.240;2023-05-14T10:27:37;0.20;;;0.20;;
9459;SDS011;4768;42.664;23.240;2023-05-14T10:30:05;0.07;;;0.07;;
9459;SDS011;4768;42.664;23.240;2023-05-14T10:32:37;0.00;;;0.00;;
9459;SDS011;4768;42.664;23.240;2023-05-14T10:35:14;0.27;;;0.17;;
9459;SDS011;4768;42.664;23.240;2023-05-14T10:37:41;0.10;;;0.10;;
9459;SDS011;4768;42.664;23.240;2023-05-14T10:40:11;0.00;;;0.00;;
9459;SDS011;4768;42.664;23.240;2023-05-14T10:42:39;0.60;;;0.40;;
9459;SDS011;4768;42.664;23.240;2023-05-14T10:45:08;0.10;;;0.10;;
9459;SDS011;4768;42.664;23.240;2023-05-14T10:47:37;0.40;;;0.40;;
9459;SDS011;4768;42.664;23.240;2023-05-14T10:50:05;0.83;;;0.70;;
9459;SDS011;4768;42.664;23.240;2023-05-14T10:52:33;0.30;;;0.30;;
9459;SDS011;4768;42.664;23.240;2023-05-14T10:55:00;0.93;;;0.77;;
9459;SDS011;4768;42.664;23.240;2023-05-14T10:57:30;0.00;;;0.00;;
9459;SDS011;4768;42.664;23.240;2023-05-14T10:59:58;0.60;;;0.57;;
9459;SDS011;4768;42.664;23.240;2023-05-14T11:02:26;0.23;;;0.23;;
9459;SDS011;4768;42.664;23.240;2023-05-14T11:04:55;0.20;;;0.20;;
9459;SDS011;4768;42.664;23.240;2023-05-14T11:07:23;0.43;;;0.43;;
9459;SDS011;4768;42.664;23.240;2023-05-14T11:09:53;0.20;;;0.20;;
9459;SDS011;4768;42.664;23.240;2023-05-14T11:12:26;1.60;;;0.50;;
9459;SDS011;4768;42.664;23.240;2023-05-14T11:14:56;0.20;;;0.20;;
9459;SDS011;4768;42.664;23.240;2023-05-14T11:17:24;0.20;;;0.20;;
9459;SDS011;4768;42.664;23.240;2023-05-14T11:19:51;0.20;;;0.10;;
9459;SDS011;4768;42.664;23.240;2023-05-14T11:22:18;0.43;;;0.37;;
9459;SDS011;4768;42.664;23.240;2023-05-14T11:24:45;0.10;;;0.10;;
9459;SDS011;4768;42.664;23.240;2023-05-14T11:27:12;0.60;;;0.37;;
9459;SDS011;4768;42.664;23.240;2023-05-14T11:29:39;0.00;;;0.00;;
9459;SDS011;4768;42.664;23.240;2023-05-14T11:32:10;0.10;;;0.10;;
9459;SDS011;4768;42.664;23.240;2023-05-14T11:34:38;1.23;;;0.30;;
9459;SDS011;4768;42.664;23.240;2023-05-14T11:37:05;0.10;;;0.10;;
9459;SDS011;4768;42.664;23.240;2023-05-14T11:39:33;0.20;;;0.20;;
9459;SDS011;4768;42.664;23.240;2023-05-14T11:42:01;0.30;;;0.20;;
9459;SDS011;4768;42.664;23.240;2023-05-14T11:44:31;0.13;;;0.13;;
9459;SDS011;4768;42.664;23.240;2023-05-14T11:46:58;0.20;;;0.20;;
9459;SDS011;4768;42.664;23.240;2023-05-14T11:49:27;0.30;;;0.30;;
9459;SDS011;4768;42.664;23.240;2023-05-14T11:51:57;0.87;;;0.77;;
9459;SDS011;4768;42.664;23.240;2023-05-14T11:54:24;0.40;;;0.40;;
9459;SDS011;4768;42.664;23.240;2023-05-14T11:56:53;0.40;;;0.40;;
9459;SDS011;4768;42.664;23.240;2023-05-14T11:59:19;0.17;;;0.17;;
9459;SDS011;4768;42.664;23.240;2023-05-14T12:01:47;0.37;;;0.37;;
9459;SDS011;4768;42.664;23.240;2023-05-14T12:04:14;0.73;;;0.30;;
9459;SDS011;4768;42.664;23.240;2023-05-14T12:06:44;0.73;;;0.30;;
9459;SDS011;4768;42.664;23.240;2023-05-14T12:09:11;0.47;;;0.13;;
9459;SDS011;4768;42.664;23.240;2023-05-14T12:11:40;0.00;;;0.00;;
9459;SDS011;4768;42.664;23.240;2023-05-14T12:14:10;0.23;;;0.23;;
9459;SDS011;4768;42.664;23.240;2023-05-14T12:16:40;0.23;;;0.23;;
9459;SDS011;4768;42.664;23.240;2023-05-14T12:19:07;2.27;;;0.50;;
9459;SDS011;4768;42.664;23.240;2023-05-14T12:21:36;0.40;;;0.40;;
9459;SDS011;4768;42.664;23.240;2023-05-14T12:24:07;0.77;;;0.70;;
9459;SDS011;4768;42.664;23.240;2023-05-14T12:26:35;0.33;;;0.33;;
9459;SDS011;4768;42.664;23.240;2023-05-14T12:29:03;0.60;;;0.60;;
9459;SDS011;4768;42.664;23.240;2023-05-14T12:31:31;0.43;;;0.30;;
9459;SDS011;4768;42.664;23.240;2023-05-14T12:33:58;0.20;;;0.20;;
9459;SDS011;4768;42.664;23.240;2023-05-14T12:36:25;0.23;;;0.23;;
9459;SDS011;4768;42.664;23.240;2023-05-14T12:38:56;0.10;;;0.10;;
9459;SDS011;4768;42.664;23.240;2023-05-14T12:41:26;0.20;;;0.20;;
9459;SDS011;4768;42.664;23.240;2023-05-14T12:43:52;0.33;;;0.33;;
9459;SDS011;4768;42.664;23.240;2023-05-14T12:46:19;0.67;;;0.67;;
9459;SDS011;4768;42.664;23.240;2023-05-14T12:48:46;0.10;;;0.10;;
9459;SDS011;4768;42.664;23.240;2023-05-14T12:51:12;0.63;;;0.57;;
9459;SDS011;4768;42.664;23.240;2023-05-14T12:53:39;0.20;;;0.20;;
9459;SDS011;4768;42.664;23.240;2023-05-14T12:56:06;0.20;;;0.10;;
9459;SDS011;4768;42.664;23.240;2023-05-14T12:58:35;0.20;;;0.20;;
9459;SDS011;4768;42.664;23.240;2023-05-14T13:01:02;0.63;;;0.40;;
9459;SDS011;4768;42.664;23.240;2023-05-14T13:03:28;4.90;;;1.00;;
9459;SDS011;4768;42.664;23.240;2023-05-14T13:05:55;0.30;;;0.30;;
9459;SDS011;4768;42.664;23.240;2023-05-14T13:08:22;0.00;;;0.00;;
9459;SDS011;4768;42.664;23.240;2023-05-14T13:10:50;0.23;;;0.23;;
9459;SDS011;4768;42.664;23.240;2023-05-14T13:13:17;0.60;;;0.37;;
9459;SDS011;4768;42.664;23.240;2023-05-14T13:15:45;0.23;;;0.23;;
9459;SDS011;4768;42.664;23.240;2023-05-14T13:18:12;0.07;;;0.07;;
9459;SDS011;4768;42.664;23.240;2023-05-14T13:20:39;1.03;;;0.40;;
9459;SDS011;4768;42.664;23.240;2023-05-14T13:23:05;0.10;;;0.10;;
9459;SDS011;4768;42.664;23.240;2023-05-14T13:25:32;1.00;;;0.60;;
9459;SDS011;4768;42.664;23.240;2023-05-14T13:27:59;0.80;;;0.53;;
9459;SDS011;4768;42.664;23.240;2023-05-14T13:30:26;0.50;;;0.50;;
9459;SDS011;4768;42.664;23.240;2023-05-14T13:32:54;0.20;;;0.20;;
9459;SDS011;4768;42.664;23.240;2023-05-14T13:35:21;0.10;;;0.10;;
9459;SDS011;4768;42.664;23.240;2023-05-14T13:37:47;0.20;;;0.20;;
9459;SDS011;4768;42.664;23.240;2023-05-14T13:40:14;1.07;;;0.20;;
9459;SDS011;4768;42.664;23.240;2023-05-14T13:42:43;0.30;;;0.30;;
9459;SDS011;4768;42.664;23.240;2023-05-14T13:45:11;0.20;;;0.20;;
9459;SDS011;4768;42.664;23.240;2023-05-14T13:47:38;0.30;;;0.30;;
9459;SDS011;4768;42.664;23.240;2023-05-14T13:50:07;0.00;;;0.00;;
9459;SDS011;4768;42.664;23.240;2023-05-14T13:52:34;0.30;;;0.27;;
9459;SDS011;4768;42.664;23.240;2023-05-14T13:55:02;0.63;;;0.37;;
9459;SDS011;4768;42.664;23.240;2023-05-14T13:57:29;0.53;;;0.50;;
9459;SDS011;4768;42.664;23.240;2023-05-14T13:59:55;0.37;;;0.37;;
9459;SDS011;4768;42.664;23.240;2023-05-14T14:02:22;0.20;;;0.20;;
9459;SDS011;4768;42.664;23.240;2023-05-14T14:04:49;1.27;;;0.50;;
9459;SDS011;4768;42.664;23.240;2023-05-14T14:07:17;0.13;;;0.13;;
9459;SDS011;4768;42.664;23.240;2023-05-14T14:09:45;2.80;;;0.50;;
9459;SDS011;4768;42.664;23.240;2023-05-14T14:12:11;0.53;;;0.53;;
9459;SDS011;4768;42.664;23.240;2023-05-14T14:14:38;0.60;;;0.47;;
9459;SDS011;4768;42.664;23.240;2023-05-14T14:17:05;0.43;;;0.43;;
9459;SDS011;4768;42.664;23.240;2023-05-14T14:19:33;1.13;;;0.63;;
9459;SDS011;4768;42.664;23.240;2023-05-14T14:21:59;0.43;;;0.43;;
9459;SDS011;4768;42.664;23.240;2023-05-14T14:24:28;0.43;;;0.33;;
9459;SDS011;4768;42.664;23.240;2023-05-14T14:26:55;0.37;;;0.37;;
9459;SDS011;4768;42.664;23.240;2023-05-14T14:29:21;0.47;;;0.47;;
9459;SDS011;4768;42.664;23.240;2023-05-14T14:31:48;0.80;;;0.80;;
9459;SDS011;4768;42.664;23.240;2023-05-14T14:34:15;0.43;;;0.43;;
9459;SDS011;4768;42.664;23.240;2023-05-14T14:36:42;1.20;;;0.93;;
9459;SDS011;4768;42.664;23.240;2023-05-14T14:39:08;0.50;;;0.50;;
9459;SDS011;4768;42.664;23.240;2023-05-14T14:41:36;0.43;;;0.43;;
9459;SDS011;4768;42.664;23.240;2023-05-14T14:44:03;0.13;;;0.13;;
9459;SDS011;4768;42.664;23.240;2023-05-14T14:46:30;0.43;;;0.40;;
9459;SDS011;4768;42.664;23.240;2023-05-14T14:48:57;0.53;;;0.50;;
9459;SDS011;4768;42.664;23.240;2023-05-14T14:51:24;1.30;;;0.87;;
9459;SDS011;4768;42.664;23.240;2023-05-14T14:53:50;0.43;;;0.43;;
9459;SDS011;4768;42.664;23.240;2023-05-14T14:56:17;0.53;;;0.53;;
9459;SDS011;4768;42.664;23.240;2023-05-14T14:58:46;0.90;;;0.90;;
9459;SDS011;4768;42.664;23.240;2023-05-14T15:01:13;2.97;;;0.63;;
9459;SDS011;4768;42.664;23.240;2023-05-14T15:03:40;2.07;;;0.77;;
9459;SDS011;4768;42.664;23.240;2023-05-14T15:06:09;0.60;;;0.60;;